Time;durP1;ratioP1;P1;durP2;ratioP2;P2;SDS_P1;SDS_P2;PMS_P1;PMS_P2;Temp;Humidity;BMP_temperature;BMP_pressure;BME280_temperature;BME280_humidity;BME280_pressure;Samples;Min_cycle;Max_cycle;Signal;HPM_P1;HPM_P2
2023/07/27 00:00:50;;;;;;;9.15;8.55;;;;;;;;;;10176095;28;20054;-71
2023/07/27 00:05:46;;;;;;;10.32;9.40;;;;;;;;;;10179463;28;20053;-70
2023/07/27 00:10:42;;;;;;;9.60;8.90;;;;;;;;;;10181309;28;20045;-71
2023/07/27 00:15:39;;;;;;;9.32;8.57;;;;;;;;;;10179161;28;20782;-73
2023/07/27 00:20:35;;;;;;;10.40;9.70;;;;;;;;;;10182210;28;20057;-73
2023/07/27 00:25:32;;;;;;;9.88;9.07;;;;;;;;;;10178208;28;20798;-73
2023/07/27 00:30:34;;;;;;;10.15;9.40;;;;;;;;;;10179312;28;20457;-74
2023/07/27 00:35:30;;;;;;;9.70;9.00;;;;;;;;;;10173092;28;20050;-74
2023/07/27 00:40:26;;;;;;;10.63;9.85;;;;;;;;;;10181114;28;20054;-74
2023/07/27 00:45:23;;;;;;;9.73;8.82;;;;;;;;;;10173122;28;20546;-71
2023/07/27 00:50:19;;;;;;;9.95;9.15;;;;;;;;;;10183002;28;20073;-71
2023/07/27 00:55:16;;;;;;;10.55;9.70;;;;;;;;;;10176749;28;20050;-70
2023/07/27 01:00:14;;;;;;;9.90;8.93;;;;;;;;;;10185789;28;20104;-70
2023/07/27 01:05:11;;;;;;;10.15;9.40;;;;;;;;;;10183153;28;20049;-70
2023/07/27 01:10:10;;;;;;;10.05;9.35;;;;;;;;;;10184326;28;20065;-71
2023/07/27 01:15:09;;;;;;;9.98;9.18;;;;;;;;;;10179702;28;20057;-71
2023/07/27 01:20:11;;;;;;;11.27;10.48;;;;;;;;;;10180211;28;20061;-70
2023/07/27 01:25:20;;;;;;;11.15;10.20;;;;;;;;;;10176299;28;20045;-70
2023/07/27 01:30:23;;;;;;;10.75;9.80;;;;;;;;;;10173526;28;20053;-72
2023/07/27 01:35:21;;;;;;;11.43;10.52;;;;;;;;;;10178411;28;20051;-71
2023/07/27 01:40:17;;;;;;;11.00;9.95;;;;;;;;;;10183360;28;20530;-71
2023/07/27 01:45:14;;;;;;;12.07;10.98;;;;;;;;;;10173232;28;20065;-70
2023/07/27 01:50:11;;;;;;;11.35;10.35;;;;;;;;;;10180075;28;20073;-71
2023/07/27 01:55:08;;;;;;;12.18;11.18;;;;;;;;;;10167476;28;20290;-73
2023/07/27 02:00:05;;;;;;;12.70;11.52;;;;;;;;;;10182416;28;20064;-73
2023/07/27 02:05:02;;;;;;;11.75;10.65;;;;;;;;;;10180614;28;20473;-73
2023/07/27 02:09:58;;;;;;;11.88;10.82;;;;;;;;;;10182299;28;20637;-71
2023/07/27 02:15:01;;;;;;;12.90;11.90;;;;;;;;;;10177509;28;20065;-71
2023/07/27 02:19:58;;;;;;;12.30;11.27;;;;;;;;;;10178111;28;20050;-71
2023/07/27 02:24:56;;;;;;;11.73;10.70;;;;;;;;;;10174072;28;20057;-71
2023/07/27 02:29:53;;;;;;;13.07;11.80;;;;;;;;;;10183754;28;20042;-70
2023/07/27 02:34:49;;;;;;;14.05;12.75;;;;;;;;;;10180036;28;20455;-69
2023/07/27 02:39:46;;;;;;;13.75;12.38;;;;;;;;;;10180531;28;20104;-70
2023/07/27 02:44:42;;;;;;;11.95;10.98;;;;;;;;;;10180002;28;20455;-69
2023/07/27 02:49:38;;;;;;;13.48;12.07;;;;;;;;;;10191916;28;20527;-70
2023/07/27 02:54:37;;;;;;;12.73;11.68;;;;;;;;;;10185412;28;20494;-70
2023/07/27 02:59:33;;;;;;;12.77;11.65;;;;;;;;;;10186378;28;20055;-70
2023/07/27 03:04:30;;;;;;;14.80;13.40;;;;;;;;;;10183496;28;20050;-71
2023/07/27 03:09:26;;;;;;;12.43;11.32;;;;;;;;;;10190159;28;20054;-71
2023/07/27 03:14:22;;;;;;;14.68;13.15;;;;;;;;;;10178006;28;20061;-69
2023/07/27 03:19:19;;;;;;;14.20;12.82;;;;;;;;;;10178940;28;20480;-70
2023/07/27 03:24:16;;;;;;;14.00;12.43;;;;;;;;;;10181759;28;20073;-69
2023/07/27 03:29:12;;;;;;;13.00;11.90;;;;;;;;;;10182016;28;20049;-71
2023/07/27 03:34:09;;;;;;;14.50;13.10;;;;;;;;;;10182458;28;20084;-72
2023/07/27 03:39:34;;;;;;;14.30;12.80;;;;;;;;;;10327082;22;20046;-72
2023/07/27 03:44:31;;;;;;;13.48;12.18;;;;;;;;;;10170771;28;20483;-73
2023/07/27 03:49:27;;;;;;;14.02;12.88;;;;;;;;;;10172366;28;20489;-72
2023/07/27 03:54:23;;;;;;;15.10;13.80;;;;;;;;;;10158124;28;20303;-73
2023/07/27 03:59:20;;;;;;;14.43;13.13;;;;;;;;;;10154087;28;20511;-73
2023/07/27 04:04:16;;;;;;;13.73;12.52;;;;;;;;;;10140718;28;20050;-74
2023/07/27 05:24:57;;;;;;;15.82;14.13;;;;;;;;;;10215554;28;20088;-73
2023/07/27 07:49:29;;;;;;;11.88;10.07;;;;;;;;;;10171821;28;20086;-72
2023/07/27 07:54:33;;;;;;;12.25;11.15;;;;;;;;;;10132355;28;20527;-73
2023/07/27 08:15:13;;;;;;;10.83;9.70;;;;;;;;;;2763296;26;20049;-72
2023/07/27 08:25:26;;;;;;;12.45;11.27;;;;;;;;;;10384305;22;20049;-72
2023/07/27 08:35:34;;;;;;;11.90;10.55;;;;;;;;;;3823824;26;20384;-72
2023/07/27 08:40:33;;;;;;;11.52;10.32;;;;;;;;;;10263438;28;20115;-72
2023/07/27 08:45:32;;;;;;;12.07;10.40;;;;;;;;;;10252371;28;20843;-73
2023/07/27 09:50:50;;;;;;;13.05;11.85;;;;;;;;;;9134301;22;20061;-72
2023/07/27 09:56:17;;;;;;;12.65;11.45;;;;;;;;;;10210925;28;20053;-73
2023/07/27 10:46:16;;;;;;;12.15;10.30;;;;;;;;;;10247526;23;20053;-72
2023/07/27 11:06:45;;;;;;;11.45;10.35;;;;;;;;;;9916070;23;20050;-73
2023/07/27 11:16:53;;;;;;;12.75;11.65;;;;;;;;;;10183015;28;20049;-73
2023/07/27 11:50:54;;;;;;;;;;;;;;;;;;;;;
2023/07/27 12:02:14;;;;;;;12.73;10.20;;;;;;;;;;10038113;28;20052;-73
2023/07/27 12:07:20;;;;;;;11.55;10.40;;;;;;;;;;10058142;28;20054;-73
2023/07/27 12:34:19;;;;;;;9.90;8.90;;;;;;;;;;2523082;22;20085;-73
2023/07/27 12:39:23;;;;;;;11.10;10.00;;;;;;;;;;10150870;28;20393;-73
2023/07/27 12:44:21;;;;;;;9.85;8.93;;;;;;;;;;10157308;28;20049;-73
2023/07/27 12:54:53;;;;;;;10.53;9.50;;;;;;;;;;10283191;23;20045;-73
2023/07/27 13:10:14;;;;;;;11.73;10.63;;;;;;;;;;10815520;23;20054;-73
2023/07/27 13:27:08;;;;;;;8.52;7.70;;;;;;;;;;10230854;28;20053;-74
2023/07/27 13:44:01;;;;;;;8.13;7.30;;;;;;;;;;10213756;28;20049;-74
2023/07/27 13:54:58;;;;;;;7.68;7.07;;;;;;;;;;10214567;28;20571;-73
2023/07/27 14:00:01;;;;;;;7.15;6.47;;;;;;;;;;10226732;28;20053;-73
2023/07/27 14:10:19;;;;;;;6.82;6.20;;;;;;;;;;10195779;28;20072;-73
2023/07/27 14:15:19;;;;;;;8.10;6.10;;;;;;;;;;10211100;28;20073;-73
2023/07/27 14:20:24;;;;;;;6.93;6.10;;;;;;;;;;10209633;28;20077;-73
2023/07/27 14:25:43;;;;;;;7.00;6.40;;;;;;;;;;10212815;28;20407;-73
2023/07/27 14:30:41;;;;;;;9.23;6.72;;;;;;;;;;10203366;28;20041;-73
2023/07/27 14:36:09;;;;;;;7.20;6.60;;;;;;;;;;10219035;28;20090;-73
2023/07/27 14:41:06;;;;;;;9.93;5.85;;;;;;;;;;10192575;28;20141;-73
2023/07/27 14:46:08;;;;;;;7.40;6.80;;;;;;;;;;10214546;28;20127;-72
2023/07/27 15:30:56;;;;;;;8.02;7.22;;;;;;;;;;10064658;28;20119;-75
2023/07/27 15:35:52;;;;;;;8.60;7.88;;;;;;;;;;10057399;28;20098;-75
2023/07/27 20:39:39;;;;;;;11.65;10.75;;;;;;;;;;10748775;22;20485;-73
2023/07/27 20:44:53;;;;;;;11.77;10.88;;;;;;;;;;10176039;28;20407;-70
2023/07/27 20:49:53;;;;;;;11.45;10.65;;;;;;;;;;10175894;28;20047;-70
2023/07/27 20:54:49;;;;;;;12.15;11.25;;;;;;;;;;10147563;28;20046;-71
2023/07/27 20:59:45;;;;;;;11.80;10.85;;;;;;;;;;10148249;28;20147;-71
2023/07/27 21:04:42;;;;;;;11.75;10.95;;;;;;;;;;10144343;28;20050;-71
2023/07/27 21:09:38;;;;;;;11.95;11.02;;;;;;;;;;10155557;28;20085;-70
2023/07/27 21:14:34;;;;;;;11.70;10.70;;;;;;;;;;10152401;28;20541;-69
2023/07/27 21:19:31;;;;;;;12.20;11.20;;;;;;;;;;10162157;28;20096;-70
2023/07/27 21:24:27;;;;;;;12.80;11.90;;;;;;;;;;10147987;28;20046;-70
2023/07/27 21:29:23;;;;;;;11.80;11.00;;;;;;;;;;10145454;28;20524;-69
2023/07/27 21:34:22;;;;;;;12.45;11.55;;;;;;;;;;10153470;28;20050;-69
2023/07/27 21:39:18;;;;;;;12.15;11.13;;;;;;;;;;10150715;28;20101;-69
2023/07/27 21:44:15;;;;;;;13.38;12.38;;;;;;;;;;10143762;28;20069;-72
2023/07/27 21:49:11;;;;;;;13.82;12.55;;;;;;;;;;10148998;28;20539;-72
2023/07/27 21:54:08;;;;;;;12.88;11.88;;;;;;;;;;10149029;28;20058;-69
2023/07/27 21:59:04;;;;;;;12.30;11.30;;;;;;;;;;10152906;28;20089;-71
2023/07/27 22:04:00;;;;;;;13.48;12.40;;;;;;;;;;10134537;28;20101;-72
2023/07/27 22:08:56;;;;;;;13.38;12.38;;;;;;;;;;10147153;28;20046;-71
2023/07/27 22:13:53;;;;;;;13.75;12.75;;;;;;;;;;10150542;28;20128;-71
2023/07/27 22:18:49;;;;;;;12.85;11.75;;;;;;;;;;10144446;28;20042;-71
2023/07/27 22:23:48;;;;;;;13.77;12.68;;;;;;;;;;10152205;28;20093;-70
2023/07/27 22:28:45;;;;;;;12.98;11.88;;;;;;;;;;10142795;28;20050;-70
2023/07/27 22:33:41;;;;;;;13.73;12.52;;;;;;;;;;10144341;28;20042;-71
2023/07/27 22:38:37;;;;;;;13.77;12.43;;;;;;;;;;10142254;28;20496;-71
2023/07/27 22:43:33;;;;;;;14.00;12.80;;;;;;;;;;10144023;28;20108;-70
2023/07/27 22:48:30;;;;;;;13.82;12.63;;;;;;;;;;10148743;28;20050;-70
2023/07/27 22:53:26;;;;;;;13.43;12.20;;;;;;;;;;10144223;28;20078;-70
2023/07/27 22:58:23;;;;;;;13.70;12.38;;;;;;;;;;10154839;28;20065;-70
2023/07/27 23:03:19;;;;;;;12.73;11.63;;;;;;;;;;10159011;28;20100;-70
2023/07/27 23:08:15;;;;;;;13.18;11.90;;;;;;;;;;10160127;28;20790;-70
2023/07/27 23:13:11;;;;;;;12.68;11.68;;;;;;;;;;10154539;28;20065;-70
2023/07/27 23:18:08;;;;;;;12.77;11.77;;;;;;;;;;10161182;28;20046;-70
2023/07/27 23:23:04;;;;;;;14.10;12.80;;;;;;;;;;10160285;28;20068;-70
2023/07/27 23:28:01;;;;;;;12.43;11.35;;;;;;;;;;10146300;28;20074;-70
2023/07/27 23:32:57;;;;;;;12.20;11.30;;;;;;;;;;10159073;28;20053;-69
2023/07/27 23:37:54;;;;;;;12.88;11.77;;;;;;;;;;10149686;28;20105;-70
2023/07/27 23:42:50;;;;;;;12.95;11.68;;;;;;;;;;10159092;28;20591;-70
2023/07/27 23:47:46;;;;;;;12.52;11.57;;;;;;;;;;10150726;28;20050;-70
2023/07/27 23:52:43;;;;;;;12.35;11.35;;;;;;;;;;10150078;28;20493;-69
2023/07/27 23:57:39;;;;;;;12.68;11.68;;;;;;;;;;10132143;28;20050;-72
